Time;durP1;ratioP1;P1;durP2;ratioP2;P2;SDS_P1;SDS_P2;PMS_P1;PMS_P2;Temp;Humidity;BMP_temperature;BMP_pressure;BME280_temperature;BME280_humidity;BME280_pressure;Samples;Min_cycle;Max_cycle;Signal;HPM_P1;HPM_P2
2022/07/15 00:01:44;;;;;;;11.65;3.45;;;;;;;23.09;nan;100242.19;5031714;28;20040;-69
2022/07/15 00:04:10;;;;;;;9.60;3.30;;;;;;;23.00;nan;100289.72;5029929;28;20121;-67
2022/07/15 00:06:35;;;;;;;8.95;3.40;;;;;;;22.92;nan;100299.28;5037324;28;20045;-69
2022/07/15 00:09:01;;;;;;;10.27;3.67;;;;;;;22.89;nan;100296.44;5034445;28;20041;-69
2022/07/15 00:11:26;;;;;;;8.23;3.78;;;;;;;22.82;nan;100304.13;5043998;28;20037;-68
2022/07/15 00:13:52;;;;;;;10.68;3.50;;;;;;;22.79;nan;100284.06;5033401;28;20025;-68
2022/07/15 00:16:17;;;;;;;10.27;4.05;;;;;;;22.73;nan;100278.06;5033347;28;20075;-67
2022/07/15 00:18:43;;;;;;;8.82;3.65;;;;;;;22.72;nan;100276.47;5034580;28;20052;-68
2022/07/15 00:21:08;;;;;;;12.52;3.53;;;;;;;22.71;nan;100282.94;5048538;28;20487;-68
2022/07/15 00:23:35;;;;;;;14.88;3.70;;;;;;;22.70;nan;100294.78;5028433;28;20457;-67
2022/07/15 00:26:00;;;;;;;11.60;3.85;;;;;;;22.71;nan;100276.78;5032190;28;20120;-67
2022/07/15 00:28:27;;;;;;;10.10;3.38;;;;;;;;;;5028221;28;21552;-70
2022/07/15 00:30:55;;;;;;;7.32;3.20;;;;;;;22.60;nan;100289.69;5029842;28;20043;-68
2022/07/15 00:33:21;;;;;;;15.02;3.42;;;;;;;22.52;nan;100304.63;5030243;28;20547;-69
2022/07/15 00:35:46;;;;;;;4.53;3.05;;;;;;;22.51;nan;100278.13;5046053;28;20136;-69
2022/07/15 00:38:12;;;;;;;7.50;3.40;;;;;;;22.44;nan;100267.03;5050020;28;20036;-68
2022/07/15 00:40:46;;;;;;;7.72;3.40;;;;;;;22.40;nan;100307.09;5033100;28;20036;-69
2022/07/15 00:43:12;;;;;;;7.25;3.42;;;;;;;22.37;nan;100334.53;5043125;28;20037;-68
2022/07/15 00:45:38;;;;;;;6.97;3.38;;;;;;;22.35;nan;100279.59;5030143;28;20034;-69
2022/07/15 00:48:04;;;;;;;6.72;3.38;;;;;;;22.33;nan;100296.00;5030648;28;20120;-70
2022/07/15 00:50:31;;;;;;;11.35;3.38;;;;;;;22.27;nan;100289.19;5031440;28;20379;-69
2022/07/15 00:53:02;;;;;;;4.30;3.45;;;;;;;22.22;nan;100319.59;5032355;28;20617;-68
2022/07/15 00:55:30;;;;;;;8.15;3.08;;;;;;;22.23;nan;100286.31;5028817;28;20029;-67
2022/07/15 00:58:02;;;;;;;8.37;3.30;;;;;;;22.20;nan;100268.16;5029714;28;20496;-68
2022/07/15 01:00:28;;;;;;;5.57;3.17;;;;;;;22.12;nan;100274.19;5031458;28;20732;-68
2022/07/15 01:02:53;;;;;;;10.27;3.10;;;;;;;22.12;nan;100268.06;5032768;28;20065;-66
2022/07/15 01:05:20;;;;;;;7.60;3.25;;;;;;;22.12;nan;100274.19;5030190;28;20038;-68
2022/07/15 01:07:48;;;;;;;5.88;3.13;;;;;;;22.04;nan;100315.16;5030477;28;20049;-68
2022/07/15 01:10:14;;;;;;;7.93;3.20;;;;;;;22.03;nan;100279.53;5032615;28;20072;-67
2022/07/15 01:12:42;;;;;;;5.95;2.83;;;;;;;22.01;nan;100267.50;5033754;28;20108;-68
2022/07/15 01:15:09;;;;;;;7.65;3.20;;;;;;;21.99;nan;100280.44;5030921;28;20057;-69
2022/07/15 01:17:34;;;;;;;8.68;3.08;;;;;;;;;;5029839;28;20040;-69
2022/07/15 01:20:00;;;;;;;4.00;2.83;;;;;;;21.91;nan;100307.94;5030814;28;20037;-67
2022/07/15 01:22:25;;;;;;;6.88;3.30;;;;;;;21.92;nan;100270.13;5028586;28;20279;-70
2022/07/15 01:24:51;;;;;;;8.40;4.03;;;;;;;21.91;nan;100287.31;5033596;28;20061;-67
2022/07/15 01:27:17;;;;;;;6.13;3.15;;;;;;;21.87;nan;100279.06;5030650;28;20041;-70
2022/07/15 01:29:42;;;;;;;5.55;2.85;;;;;;;21.87;nan;100275.59;5050730;28;20468;-69
2022/07/15 01:32:08;;;;;;;4.47;2.75;;;;;;;;;;5030502;28;20056;-70
2022/07/15 01:34:33;;;;;;;6.63;3.03;;;;;;;;;;5030793;28;20033;-69
2022/07/15 01:36:58;;;;;;;6.83;3.17;;;;;;;21.70;nan;100278.94;5032837;28;20495;-68
2022/07/15 01:39:24;;;;;;;8.75;3.03;;;;;;;21.65;nan;100234.28;5033964;28;20357;-68
2022/07/15 01:41:49;;;;;;;3.70;2.70;;;;;;;21.56;nan;100260.22;5035100;28;20488;-68
2022/07/15 01:44:15;;;;;;;8.95;2.50;;;;;;;21.51;nan;100249.59;5038099;28;20376;-68
2022/07/15 01:46:40;;;;;;;8.02;3.00;;;;;;;21.49;nan;100222.31;5032382;28;20483;-69
2022/07/15 01:51:50;;;;;;;6.45;2.85;;;;;;;21.25;nan;100258.16;5033648;28;20033;-69
2022/07/15 01:54:16;;;;;;;5.65;2.70;;;;;;;21.10;nan;100249.66;5034349;28;20042;-69
2022/07/15 01:56:43;;;;;;;11.40;3.47;;;;;;;21.14;nan;100246.09;5036446;28;20029;-68
2022/07/15 01:59:08;;;;;;;6.85;2.80;;;;;;;21.09;nan;100256.09;5049838;28;20033;-68
2022/07/15 02:01:35;;;;;;;7.05;2.60;;;;;;;21.02;nan;100205.63;5032783;28;20064;-69
2022/07/15 02:04:00;;;;;;;6.43;2.80;;;;;;;21.04;nan;100247.06;5031071;28;20484;-70
2022/07/15 02:06:26;;;;;;;5.45;2.92;;;;;;;21.00;nan;100250.66;5035329;28;20034;-69
2022/07/15 02:08:52;;;;;;;7.13;3.20;;;;;;;20.94;nan;100247.25;5037431;28;20033;-69
2022/07/15 02:11:17;;;;;;;5.88;2.92;;;;;;;;;;5035940;28;20457;-68
2022/07/15 02:13:42;;;;;;;9.20;3.13;;;;;;;20.97;nan;100259.25;5034420;28;20040;-69
2022/07/15 02:16:08;;;;;;;4.50;2.38;;;;;;;20.90;nan;100251.66;5034014;28;20130;-67
2022/07/15 02:18:34;;;;;;;5.45;2.75;;;;;;;20.89;nan;100238.56;5037058;28;20373;-69
2022/07/15 02:20:59;;;;;;;4.88;2.58;;;;;;;20.86;nan;100253.31;5032521;28;20041;-68
2022/07/15 02:23:25;;;;;;;5.93;2.83;;;;;;;20.82;nan;100276.41;5032945;28;20380;-69
2022/07/15 02:25:50;;;;;;;7.00;2.70;;;;;;;20.84;nan;100246.69;5047843;28;20052;-68
2022/07/15 02:28:15;;;;;;;6.45;2.88;;;;;;;20.84;nan;100250.16;5048846;28;20038;-68
2022/07/15 02:30:43;;;;;;;6.65;2.70;;;;;;;20.75;nan;100242.00;5034319;28;20021;-68
2022/07/15 02:33:09;;;;;;;9.80;2.92;;;;;;;20.74;nan;100256.50;5031373;28;20060;-67
2022/07/15 02:35:35;;;;;;;5.57;2.50;;;;;;;20.69;nan;100242.41;5040695;28;20034;-68
2022/07/15 02:38:01;;;;;;;5.38;3.05;;;;;;;20.58;nan;100237.22;5036463;28;20029;-68
2022/07/15 02:40:28;;;;;;;13.10;2.53;;;;;;;20.51;nan;100260.09;5033505;28;20399;-68
2022/07/15 02:42:56;;;;;;;8.63;3.10;;;;;;;20.35;nan;100224.78;5037127;28;20081;-68
2022/07/15 02:45:24;;;;;;;8.05;2.88;;;;;;;20.24;nan;100245.56;5034287;28;20091;-69
2022/07/15 02:47:50;;;;;;;6.20;3.03;;;;;;;20.13;nan;100244.94;5045538;28;20116;-69
2022/07/15 02:50:17;;;;;;;7.53;2.65;;;;;;;20.04;nan;100257.41;5032204;28;20033;-68
2022/07/15 02:52:43;;;;;;;9.65;2.80;;;;;;;19.87;nan;100211.69;5025394;28;20030;-70
2022/07/15 02:55:09;;;;;;;6.63;2.75;;;;;;;19.88;nan;100240.78;5030784;28;20074;-69
2022/07/15 02:57:35;;;;;;;7.97;2.60;;;;;;;19.94;nan;100262.88;5033197;28;20183;-69
2022/07/15 03:00:02;;;;;;;9.15;3.65;;;;;;;19.94;nan;100273.56;5036256;28;20041;-68
2022/07/15 03:02:27;;;;;;;5.78;2.83;;;;;;;;;;5033518;28;20123;-70
2022/07/15 03:04:53;;;;;;;14.20;3.30;;;;;;;19.88;nan;100243.47;5035348;28;20129;-69
2022/07/15 03:07:18;;;;;;;16.30;3.72;;;;;;;19.85;nan;100260.09;5033364;28;20732;-70
2022/07/15 03:09:44;;;;;;;11.45;3.30;;;;;;;19.77;nan;100248.16;5035520;28;20107;-70
2022/07/15 03:12:09;;;;;;;12.15;3.00;;;;;;;19.72;nan;100255.47;5033692;28;20040;-70
2022/07/15 03:14:35;;;;;;;11.20;3.10;;;;;;;19.63;nan;100241.91;5050727;28;20063;-69
2022/07/15 03:17:00;;;;;;;13.23;3.25;;;;;;;19.55;nan;100251.38;5031290;28;20041;-70
2022/07/15 03:19:26;;;;;;;4.70;2.70;;;;;;;19.51;nan;100253.06;5034778;28;20037;-70
2022/07/15 03:21:51;;;;;;;10.35;3.13;;;;;;;;;;5032616;28;20057;-71
2022/07/15 03:24:17;;;;;;;9.88;2.92;;;;;;;19.37;nan;100291.41;5034826;28;20492;-70
2022/07/15 03:26:43;;;;;;;11.23;3.17;;;;;;;19.39;nan;100255.31;5030186;28;20037;-69
2022/07/15 03:29:09;;;;;;;14.52;3.40;;;;;;;19.20;nan;100193.94;5034262;28;20037;-69
2022/07/15 03:31:34;;;;;;;13.93;3.40;;;;;;;19.17;nan;100226.50;5033230;28;20034;-70
2022/07/15 03:34:00;;;;;;;8.60;3.20;;;;;;;;;;5031387;28;20407;-69
2022/07/15 03:36:25;;;;;;;11.57;3.50;;;;;;;19.10;nan;100242.09;5033198;28;20501;-69
2022/07/15 03:38:51;;;;;;;9.38;3.00;;;;;;;19.16;nan;100261.53;5045853;28;20282;-69
2022/07/15 03:41:20;;;;;;;11.40;2.90;;;;;;;19.10;nan;100252.75;5035281;28;20056;-68
2022/07/15 03:43:45;;;;;;;9.18;3.13;;;;;;;19.10;nan;100242.09;5046067;28;20053;-69
2022/07/15 03:46:11;;;;;;;15.05;3.28;;;;;;;19.10;nan;100303.47;5031849;28;20041;-69
2022/07/15 03:48:37;;;;;;;10.02;3.03;;;;;;;19.12;nan;100259.41;5032552;28;20068;-68
2022/07/15 03:51:03;;;;;;;13.55;3.08;;;;;;;19.16;nan;100262.31;5028954;28;20117;-72
2022/07/15 03:53:28;;;;;;;10.38;2.85;;;;;;;;;;5047218;28;20040;-68
2022/07/15 03:55:54;;;;;;;18.92;3.33;;;;;;;;;;5023270;28;20030;-68
2022/07/15 03:58:19;;;;;;;11.88;3.70;;;;;;;19.29;nan;100268.81;5027351;28;20514;-70
2022/07/15 04:00:45;;;;;;;11.10;2.90;;;;;;;19.33;nan;100270.63;5041394;28;20124;-70
2022/07/15 04:03:10;;;;;;;7.13;2.65;;;;;;;19.34;nan;100346.19;5024959;28;20029;-70
2022/07/15 04:05:35;;;;;;;5.68;2.60;;;;;;;;;;5046060;28;20034;-68
2022/07/15 04:08:01;;;;;;;8.68;2.65;;;;;;;;;;5042878;28;20045;-71
2022/07/15 04:10:26;;;;;;;12.07;3.05;;;;;;;19.37;nan;100209.44;5025054;28;20064;-67
2022/07/15 04:12:52;;;;;;;17.17;3.90;;;;;;;19.41;nan;100316.47;5028820;28;20072;-69
2022/07/15 04:15:17;;;;;;;12.52;3.35;;;;;;;19.46;nan;100238.97;5029480;28;20079;-71
2022/07/15 04:17:43;;;;;;;9.60;2.58;;;;;;;19.46;nan;100273.69;5028062;28;20044;-71
2022/07/15 04:20:08;;;;;;;8.70;2.67;;;;;;;19.55;nan;100242.56;5029868;28;20037;-70
2022/07/15 04:22:44;;;;;;;9.02;2.92;;;;;;;19.59;nan;100251.59;5028845;28;20044;-70
2022/07/15 04:25:14;;;;;;;15.35;3.17;;;;;;;19.65;nan;100285.16;5056175;28;20041;-71
2022/07/15 04:27:39;;;;;;;10.55;2.83;;;;;;;19.70;nan;100271.75;5030734;28;20034;-71
2022/07/15 04:30:06;;;;;;;8.27;2.58;;;;;;;19.70;nan;100271.75;5030442;28;20038;-72
2022/07/15 04:32:32;;;;;;;9.55;2.85;;;;;;;19.85;nan;100288.66;5032118;28;20076;-72
2022/07/15 04:34:57;;;;;;;5.47;3.15;;;;;;;;;;5029287;28;20493;-70
2022/07/15 04:37:22;;;;;;;9.40;3.03;;;;;;;;;;5030956;28;20037;-69
2022/07/15 04:39:48;;;;;;;8.38;2.83;;;;;;;20.15;nan;100282.06;5031140;28;20075;-69
2022/07/15 04:42:14;;;;;;;10.63;2.72;;;;;;;20.08;nan;100274.41;5029334;28;20072;-70
2022/07/15 04:44:40;;;;;;;9.90;3.00;;;;;;;20.14;nan;100254.56;5028814;28;20034;-71
2022/07/15 04:47:05;;;;;;;7.85;2.90;;;;;;;20.37;nan;100286.78;5032598;28;20045;-70
2022/07/15 04:52:15;;;;;;;12.50;3.35;;;;;;;20.55;nan;100299.38;5032893;28;20033;-67
2022/07/15 04:54:41;;;;;;;5.97;2.72;;;;;;;;;;5032394;28;20487;-71
2022/07/15 04:57:06;;;;;;;16.45;3.22;;;;;;;20.70;nan;100297.50;5029722;28;20060;-71
2022/07/15 04:59:32;;;;;;;9.93;3.28;;;;;;;;;;5031163;28;20535;-68
2022/07/15 05:01:58;;;;;;;18.15;3.25;;;;;;;20.88;nan;100349.38;5029337;28;20037;-70
2022/07/15 05:04:24;;;;;;;16.00;3.00;;;;;;;21.02;nan;100297.44;5028957;28;20045;-72
2022/07/15 05:06:49;;;;;;;13.05;3.50;;;;;;;21.14;nan;100307.66;5029708;28;20392;-69
2022/07/15 05:09:15;;;;;;;11.02;2.50;;;;;;;21.32;nan;100300.59;5030787;28;20044;-70
2022/07/15 05:11:41;;;;;;;14.57;2.88;;;;;;;21.45;nan;100307.06;5041823;28;20037;-70
2022/07/15 05:14:06;;;;;;;14.45;2.92;;;;;;;21.55;nan;100314.09;5030267;28;20164;-67
2022/07/15 05:16:32;;;;;;;11.48;3.05;;;;;;;21.64;nan;100301.56;5033000;28;20025;-67
2022/07/15 05:18:57;;;;;;;12.45;3.13;;;;;;;21.75;nan;100259.28;5033712;28;20029;-68
2022/07/15 05:21:23;;;;;;;14.20;2.40;;;;;;;21.86;nan;100309.66;5033132;28;20033;-68
2022/07/15 05:23:48;;;;;;;12.57;2.70;;;;;;;;;;5033350;28;20042;-69
2022/07/15 05:26:13;;;;;;;10.30;2.40;;;;;;;22.03;nan;100346.56;5035383;28;20044;-69
2022/07/15 05:28:40;;;;;;;14.00;2.88;;;;;;;;;;5033448;28;20048;-68
2022/07/15 05:31:06;;;;;;;14.68;2.83;;;;;;;22.23;nan;100323.84;5029492;28;20433;-71
2022/07/15 05:33:32;;;;;;;19.63;2.55;;;;;;;22.32;nan;100281.00;5028613;28;20036;-70
2022/07/15 05:35:58;;;;;;;11.75;2.70;;;;;;;22.37;nan;100301.56;5034727;28;20484;-71
2022/07/15 05:38:24;;;;;;;11.13;2.88;;;;;;;22.52;nan;100296.56;5032885;28;20099;-70
2022/07/15 05:40:50;;;;;;;12.02;2.72;;;;;;;22.62;nan;100298.19;5034549;28;20036;-70
2022/07/15 05:43:15;;;;;;;9.82;3.00;;;;;;;22.69;nan;100311.97;5034516;28;20037;-70
2022/07/15 05:45:41;;;;;;;11.88;2.70;;;;;;;22.79;nan;100302.06;5034085;28;20079;-70
2022/07/15 05:48:06;;;;;;;11.35;2.80;;;;;;;;;;5032657;28;20036;-70
2022/07/15 05:50:32;;;;;;;8.43;2.35;;;;;;;23.00;nan;100292.41;5029456;28;20434;-68
2022/07/15 05:52:58;;;;;;;14.23;2.67;;;;;;;23.19;nan;100299.41;5032763;28;20060;-69
2022/07/15 05:55:23;;;;;;;20.50;3.72;;;;;;;23.23;nan;100317.28;5034106;28;20104;-69
2022/07/15 05:57:49;;;;;;;16.50;3.22;;;;;;;23.38;nan;100324.13;5033357;28;20374;-69
2022/07/15 06:00:15;;;;;;;21.52;3.20;;;;;;;23.50;nan;100294.75;5032830;28;20490;-66
2022/07/15 06:02:41;;;;;;;23.50;3.55;;;;;;;23.56;nan;100303.47;5031603;28;20052;-69
2022/07/15 06:05:08;;;;;;;18.63;3.30;;;;;;;23.73;nan;100294.63;5032352;28;20033;-68
2022/07/15 06:07:35;;;;;;;21.50;3.10;;;;;;;23.91;nan;100306.97;5030919;28;20040;-67
2022/07/15 06:10:00;;;;;;;7.80;2.40;;;;;;;24.08;nan;100291.94;5034487;28;20124;-67
2022/07/15 06:12:26;;;;;;;6.57;2.63;;;;;;;24.20;nan;100279.41;5033343;28;20124;-68
2022/07/15 06:14:51;;;;;;;12.55;3.15;;;;;;;24.30;nan;100326.75;5032165;28;20128;-67
2022/07/15 06:17:17;;;;;;;10.70;2.60;;;;;;;24.49;nan;100277.16;5033271;28;20041;-69
2022/07/15 06:19:43;;;;;;;10.50;2.60;;;;;;;24.67;nan;100297.53;5035166;28;20025;-68
2022/07/15 06:22:09;;;;;;;13.32;3.05;;;;;;;24.72;nan;100291.19;5030901;28;20080;-68
2022/07/15 06:24:34;;;;;;;5.75;2.50;;;;;;;24.83;nan;100295.91;5030518;28;20132;-69
2022/07/15 06:26:59;;;;;;;3.85;2.30;;;;;;;24.98;nan;100289.19;5029127;28;20041;-68
2022/07/15 06:29:25;;;;;;;5.43;2.40;;;;;;;25.08;nan;100296.09;5032761;28;20096;-68
2022/07/15 06:31:51;;;;;;;4.50;2.50;;;;;;;25.26;nan;100299.53;5033193;28;20052;-67
2022/07/15 06:34:16;;;;;;;3.63;2.50;;;;;;;25.34;nan;100346.41;5029386;28;20107;-69
2022/07/15 06:36:42;;;;;;;6.57;2.47;;;;;;;25.45;nan;100316.06;5032104;28;20503;-68
2022/07/15 06:39:07;;;;;;;4.40;2.55;;;;;;;25.49;nan;100300.00;5052136;28;20041;-67
2022/07/15 06:41:33;;;;;;;4.80;2.38;;;;;;;25.60;nan;100319.28;5033240;28;20545;-67
2022/07/15 06:44:00;;;;;;;7.25;2.53;;;;;;;25.64;nan;100291.34;5033271;28;20545;-68
2022/07/15 06:46:25;;;;;;;6.72;2.40;;;;;;;25.75;nan;100313.31;5029601;28;20041;-66
2022/07/15 06:48:51;;;;;;;7.82;2.88;;;;;;;25.80;nan;100301.53;5033606;28;20030;-69
2022/07/15 06:51:16;;;;;;;6.97;3.08;;;;;;;25.94;nan;100325.56;5031469;28;20034;-68
2022/07/15 06:53:42;;;;;;;7.85;3.22;;;;;;;25.96;nan;100326.81;5033814;28;20045;-67
2022/07/15 06:56:08;;;;;;;4.85;2.90;;;;;;;26.08;nan;100339.56;5032208;28;20033;-67
2022/07/15 06:58:34;;;;;;;6.35;2.70;;;;;;;26.11;nan;100363.19;5025567;28;20057;-68
2022/07/15 07:01:00;;;;;;;3.53;2.40;;;;;;;26.23;nan;100332.78;5031734;28;20057;-67
2022/07/15 07:03:26;;;;;;;7.70;3.10;;;;;;;26.32;nan;100344.28;5033066;28;20041;-66
2022/07/15 07:05:51;;;;;;;5.97;2.63;;;;;;;26.39;nan;100349.16;5048547;28;20443;-67
2022/07/15 07:08:17;;;;;;;14.27;2.60;;;;;;;26.50;nan;100334.09;5033343;28;20112;-67
2022/07/15 07:10:42;;;;;;;10.52;3.08;;;;;;;26.58;nan;100313.53;5031860;28;20091;-68
2022/07/15 07:13:08;;;;;;;6.22;2.70;;;;;;;26.70;nan;100330.56;5032817;28;20498;-67
2022/07/15 07:15:34;;;;;;;9.65;2.90;;;;;;;26.77;nan;100340.00;5014898;28;20029;-68
2022/07/15 07:17:59;;;;;;;10.60;2.72;;;;;;;26.88;nan;100336.53;5030182;28;20033;-66
2022/07/15 07:20:25;;;;;;;7.25;2.45;;;;;;;26.92;nan;100342.84;5046879;28;20048;-66
2022/07/15 07:22:50;;;;;;;6.50;2.47;;;;;;;26.88;nan;100331.13;5030521;28;20041;-70
2022/07/15 07:25:15;;;;;;;5.95;2.30;;;;;;;27.08;nan;100347.59;5032832;28;20038;-68
2022/07/15 07:27:41;;;;;;;9.43;2.58;;;;;;;27.23;nan;100338.84;5032855;28;20029;-69
2022/07/15 07:30:07;;;;;;;6.65;2.33;;;;;;;27.29;nan;100305.03;5032499;28;20507;-68
2022/07/15 07:32:33;;;;;;;4.63;2.35;;;;;;;27.36;nan;100307.16;5032156;28;20026;-68
2022/07/15 07:34:58;;;;;;;6.75;2.30;;;;;;;27.50;nan;100328.44;5030125;28;20029;-68
2022/07/15 07:37:25;;;;;;;4.57;2.42;;;;;;;27.58;nan;100333.75;5030385;28;20073;-68
2022/07/15 07:39:50;;;;;;;3.92;2.30;;;;;;;27.58;nan;100331.03;5032176;28;20037;-70
2022/07/15 07:42:16;;;;;;;7.35;2.33;;;;;;;27.64;nan;100299.13;5032559;28;20467;-69
2022/07/15 07:44:45;;;;;;;3.17;2.42;;;;;;;27.70;nan;100359.97;5030858;28;20095;-68
2022/07/15 07:47:10;;;;;;;8.13;2.78;;;;;;;27.75;nan;100342.69;5032609;28;20095;-69
2022/07/15 07:49:35;;;;;;;5.65;2.45;;;;;;;27.78;nan;100317.69;5032201;28;20037;-69
2022/07/15 07:52:02;;;;;;;7.45;2.40;;;;;;;27.81;nan;100306.16;5031629;28;20038;-69
2022/07/15 07:54:29;;;;;;;4.93;2.20;;;;;;;27.85;nan;100336.06;5031706;28;20053;-69
2022/07/15 07:56:54;;;;;;;3.00;2.10;;;;;;;27.96;nan;100342.56;5031026;28;20527;-69
2022/07/15 07:59:21;;;;;;;10.38;1.90;;;;;;;28.02;nan;100295.19;5032027;28;20033;-68
2022/07/15 08:01:46;;;;;;;4.47;2.05;;;;;;;28.11;nan;100346.44;5031725;28;20037;-68
2022/07/15 08:04:13;;;;;;;7.55;2.30;;;;;;;28.18;nan;100352.88;5031573;28;20395;-68
2022/07/15 08:06:40;;;;;;;5.32;2.30;;;;;;;28.29;nan;100333.41;5032039;28;20021;-68
2022/07/15 08:09:06;;;;;;;5.30;1.98;;;;;;;28.40;nan;100343.38;5030956;28;20063;-68
2022/07/15 08:11:31;;;;;;;10.55;2.67;;;;;;;28.54;nan;100363.88;5030846;28;20060;-69
2022/07/15 08:13:57;;;;;;;4.05;1.95;;;;;;;28.61;nan;100370.28;5027894;28;20025;-69
2022/07/15 08:16:22;;;;;;;6.38;2.40;;;;;;;28.62;nan;100336.63;5031805;28;20044;-68
2022/07/15 08:18:47;;;;;;;4.85;2.08;;;;;;;28.73;nan;100336.09;5046867;28;20025;-69
2022/07/15 08:21:14;;;;;;;4.75;2.10;;;;;;;28.73;nan;100326.06;5032117;28;20055;-68
2022/07/15 08:23:40;;;;;;;12.38;2.30;;;;;;;28.79;nan;100378.06;5031343;28;20049;-69
2022/07/15 08:26:07;;;;;;;8.10;2.20;;;;;;;28.83;nan;100328.25;5031860;28;20034;-69
2022/07/15 08:28:33;;;;;;;4.43;2.17;;;;;;;28.89;nan;100336.88;5030754;28;20037;-67
2022/07/15 08:30:59;;;;;;;4.20;1.98;;;;;;;28.94;nan;100388.13;5031187;28;20033;-70
2022/07/15 08:33:24;;;;;;;4.57;2.20;;;;;;;29.04;nan;100319.84;5031502;28;20103;-68
2022/07/15 08:35:50;;;;;;;8.18;2.60;;;;;;;29.09;nan;100331.56;5029621;28;20029;-68
2022/07/15 08:38:15;;;;;;;4.35;2.03;;;;;;;29.13;nan;100349.50;5028405;28;20483;-69
2022/07/15 08:40:42;;;;;;;6.07;2.30;;;;;;;29.20;nan;100336.09;5025422;28;20037;-69
2022/07/15 08:43:10;;;;;;;5.65;2.00;;;;;;;29.23;nan;100378.78;5028941;28;20029;-68
2022/07/15 08:45:37;;;;;;;8.90;2.42;;;;;;;29.26;nan;100328.50;5029667;28;20067;-69
2022/07/15 08:48:04;;;;;;;9.15;2.10;;;;;;;29.29;nan;100341.34;5028675;28;20033;-68
2022/07/15 08:50:31;;;;;;;7.72;2.03;;;;;;;29.38;nan;100350.06;5031435;28;20041;-69
2022/07/15 08:52:57;;;;;;;4.85;2.13;;;;;;;29.43;nan;100330.81;5046356;28;20044;-68
2022/07/15 08:55:23;;;;;;;4.85;2.10;;;;;;;29.51;nan;100383.28;5046867;28;20033;-69
2022/07/15 08:57:52;;;;;;;4.20;1.88;;;;;;;29.59;nan;100328.03;5026946;28;20499;-68
2022/07/15 09:00:18;;;;;;;5.53;2.30;;;;;;;29.64;nan;100330.50;5016314;28;20061;-66
2022/07/15 09:02:45;;;;;;;5.03;2.67;;;;;;;29.98;nan;100335.44;4982110;28;20499;-70
2022/07/15 09:05:22;;;;;;;3.35;1.60;;;;;;;30.17;nan;100323.78;4978468;28;20038;-69
2022/07/15 09:08:00;;;;;;;5.90;1.90;;;;;;;30.35;nan;100332.28;4995949;28;20465;-70
2022/07/15 09:10:49;;;;;;;3.60;1.95;;;;;;;30.46;nan;100341.44;4986912;28;20030;-70
2022/07/15 09:13:30;;;;;;;4.30;1.90;;;;;;;30.56;nan;100323.72;4989446;28;20062;-70
2022/07/15 09:15:57;;;;;;;5.25;1.75;;;;;;;30.59;nan;100328.44;4983676;28;20506;-71
2022/07/15 09:18:26;;;;;;;3.83;1.80;;;;;;;30.60;nan;100384.34;4988261;28;20097;-70
2022/07/15 09:20:52;;;;;;;5.28;1.70;;;;;;;30.72;nan;100390.41;4987964;28;20057;-70
2022/07/15 09:23:29;;;;;;;5.88;2.20;;;;;;;30.82;nan;100383.59;4984070;28;20084;-71
2022/07/15 09:25:55;;;;;;;6.38;2.00;;;;;;;30.86;nan;100343.66;4986392;28;20061;-70
2022/07/15 09:28:20;;;;;;;9.25;1.70;;;;;;;30.94;nan;100356.25;4991258;28;20062;-70
2022/07/15 09:33:40;;;;;;;2.80;1.85;;;;;;;31.09;nan;100348.31;4991690;28;20026;-71
2022/07/15 09:36:16;;;;;;;3.42;1.83;;;;;;;31.14;nan;100326.22;4989870;28;20157;-70
2022/07/15 09:38:43;;;;;;;4.65;1.60;;;;;;;31.22;nan;100324.38;4986593;28;20042;-71
2022/07/15 09:41:26;;;;;;;3.05;1.30;;;;;;;31.18;nan;100323.56;4991864;28;20030;-72
2022/07/15 09:43:56;;;;;;;3.65;1.58;;;;;;;31.27;nan;100326.78;4987245;28;20031;-71
2022/07/15 09:46:24;;;;;;;2.80;1.60;;;;;;;31.31;nan;100344.72;4991399;28;20188;-72
2022/07/15 09:48:52;;;;;;;4.18;1.45;;;;;;;31.42;nan;100319.66;4985460;28;20694;-70
2022/07/15 09:51:18;;;;;;;7.85;1.48;;;;;;;31.43;nan;100362.03;4979869;28;20030;-70
2022/07/15 09:53:44;;;;;;;3.92;1.50;;;;;;;31.47;nan;100295.63;4986626;28;20113;-70
2022/07/15 09:56:14;;;;;;;7.85;2.17;;;;;;;31.58;nan;100326.50;4986422;28;20033;-70
2022/07/15 09:58:41;;;;;;;4.28;1.40;;;;;;;31.69;nan;100320.38;4989047;28;20038;-71
2022/07/15 10:01:09;;;;;;;2.47;1.48;;;;;;;31.83;nan;100325.22;4992504;28;20038;-70
2022/07/15 10:03:35;;;;;;;2.65;1.38;;;;;;;31.88;nan;100319.44;4991619;28;20026;-72
2022/07/15 10:06:02;;;;;;;2.20;1.45;;;;;;;31.91;nan;100319.47;4990042;28;20409;-72
2022/07/15 10:08:31;;;;;;;2.35;1.60;;;;;;;31.97;nan;100336.31;4987874;28;20036;-70
2022/07/15 10:10:57;;;;;;;3.25;1.40;;;;;;;31.98;nan;100322.31;4990553;28;20045;-71
2022/07/15 10:13:53;;;;;;;3.38;1.70;;;;;;;32.04;nan;100346.47;4988421;28;20034;-70
2022/07/15 10:16:56;;;;;;;3.58;1.42;;;;;;;32.11;nan;100327.50;5005380;28;20036;-70
2022/07/15 10:19:28;;;;;;;3.17;1.75;;;;;;;32.06;nan;100316.94;4994092;28;20034;-72
2022/07/15 10:22:15;;;;;;;2.50;1.48;;;;;;;32.14;nan;100324.03;4991376;28;20045;-71
2022/07/15 10:24:59;;;;;;;2.85;1.55;;;;;;;32.19;nan;100302.69;4990024;28;20085;-72
2022/07/15 10:27:27;;;;;;;1.58;1.20;;;;;;;32.26;nan;100301.97;4992350;28;20038;-71
2022/07/15 10:29:54;;;;;;;3.92;1.55;;;;;;;32.33;nan;100299.31;4990110;28;20038;-71
2022/07/15 10:32:19;;;;;;;5.13;1.45;;;;;;;32.40;nan;100288.47;4992352;28;20035;-70
2022/07/15 10:34:45;;;;;;;2.88;1.30;;;;;;;32.39;nan;100283.38;4991188;28;20045;-68
2022/07/15 10:37:12;;;;;;;3.08;1.38;;;;;;;32.48;nan;100300.22;4993869;28;20042;-69
2022/07/15 10:39:55;;;;;;;3.45;1.33;;;;;;;32.50;nan;100303.38;4994201;28;20387;-69
2022/07/15 10:42:21;;;;;;;5.97;1.50;;;;;;;32.57;nan;100308.13;4994060;28;20066;-70
2022/07/15 10:45:00;;;;;;;4.43;1.35;;;;;;;32.54;nan;100298.75;4992879;28;20555;-70
2022/07/15 10:47:26;;;;;;;4.10;1.48;;;;;;;32.58;nan;100299.53;4983127;28;20077;-68
2022/07/15 10:49:51;;;;;;;3.67;1.30;;;;;;;32.64;nan;100294.53;4988600;28;20132;-70
2022/07/15 10:52:29;;;;;;;3.03;1.30;;;;;;;32.70;nan;100301.19;4988608;28;20113;-69
2022/07/15 10:54:54;;;;;;;2.53;1.15;;;;;;;32.76;nan;100294.25;4993200;28;20026;-70
2022/07/15 10:57:20;;;;;;;2.47;1.38;;;;;;;32.67;nan;100285.59;4993808;28;20045;-70
2022/07/15 10:59:52;;;;;;;1.58;1.27;;;;;;;32.80;nan;100295.06;4994571;28;20034;-69
2022/07/15 11:02:20;;;;;;;2.30;1.30;;;;;;;32.87;nan;100282.63;4992687;28;20121;-70
2022/07/15 11:05:12;;;;;;;4.43;1.40;;;;;;;32.87;nan;100274.44;4989288;28;20432;-70
2022/07/15 11:07:39;;;;;;;1.88;1.33;;;;;;;32.97;nan;100301.00;4991278;28;20042;-72
2022/07/15 11:10:05;;;;;;;2.25;1.58;;;;;;;33.02;nan;100287.03;4990169;28;20041;-71
2022/07/15 11:12:30;;;;;;;3.22;1.75;;;;;;;32.98;nan;100284.25;4992791;28;20560;-69
2022/07/15 11:15:00;;;;;;;2.88;1.70;;;;;;;32.97;nan;100255.44;4990067;28;20042;-67
2022/07/15 11:17:28;;;;;;;4.70;1.45;;;;;;;33.00;nan;100294.78;4964308;28;20038;-67
2022/07/15 11:20:08;;;;;;;3.85;1.60;;;;;;;32.98;nan;100319.72;4986466;28;20034;-68
2022/07/15 11:22:39;;;;;;;5.13;1.60;;;;;;;32.95;nan;100284.25;4991703;28;20054;-69
2022/07/15 11:25:06;;;;;;;4.85;1.60;;;;;;;32.78;nan;100269.31;4992411;28;20040;-69
2022/07/15 11:27:32;;;;;;;5.70;1.65;;;;;;;32.72;nan;100232.66;4991896;28;20036;-69
2022/07/15 11:30:03;;;;;;;3.65;1.50;;;;;;;32.80;nan;100267.78;4990241;28;20064;-70
2022/07/15 11:32:31;;;;;;;3.97;1.60;;;;;;;32.82;nan;100314.53;4993153;28;20376;-70
2022/07/15 11:35:00;;;;;;;4.32;1.63;;;;;;;32.87;nan;100268.97;4992996;28;20088;-70
2022/07/15 11:37:27;;;;;;;1.50;1.40;;;;;;;33.01;nan;100247.25;4992744;28;20060;-71
2022/07/15 11:40:04;;;;;;;2.05;1.40;;;;;;;32.98;nan;100253.47;4991651;28;20038;-71
2022/07/15 11:45:32;;;;;;;2.60;1.55;;;;;;;33.01;nan;100242.56;4990040;28;20121;-71
2022/07/15 11:47:57;;;;;;;3.85;1.70;;;;;;;33.28;nan;100255.97;4989580;28;20033;-72
2022/07/15 11:50:23;;;;;;;6.00;1.90;;;;;;;33.22;nan;100227.50;4992848;28;20022;-72
2022/07/15 11:52:54;;;;;;;5.95;1.90;;;;;;;33.25;nan;100238.44;4991078;28;20037;-72
2022/07/15 11:55:21;;;;;;;10.13;2.40;;;;;;;33.27;nan;100257.16;4986464;28;20170;-71
2022/07/15 11:57:47;;;;;;;8.68;2.10;;;;;;;33.23;nan;100248.94;4986746;28;20113;-71
2022/07/15 12:00:13;;;;;;;3.15;1.58;;;;;;;33.14;nan;100251.25;4993033;28;20093;-72